Flight Track Log - Related Links

Times and Time Zones

All times are in EDT time to prevent confusion due to time zone crossing. See the UAL532 flight status page for this flight to view local times or setup timezone preferences in your user account.

Time Position Orientation Groundspeed Altitude Reporting Facility
EDT Latitude Longitude Course Direction KTS MPH feet Rate Location/Type
Mon 12:10:12 PM 42.0167 -87.9500 90° East 188 216 2,800  Level Chicago TRACON
Mon 12:11:06 PM 42.0667 -87.9000 37° Northeast 250 288 4,300 2,172 Climbing Chicago TRACON
Mon 12:12:08 PM 42.0986 -87.8033 66° East 284 327 7,000 2,758 Climbing Chicago Center
Mon 12:13:10 PM 42.1286 -87.6975 69° East 300 345 10,000 2,806 Climbing Chicago Center
Mon 12:14:12 PM 42.1544 -87.5831 73° East 315 362 12,800 1,984 Climbing Chicago Center
Mon 12:15:00 PM 42.2833 -86.9483 90° East  Level FlightAware
Mon 12:15:14 PM 42.1853 -87.4556 72° East 354 407 14,100  Level Chicago Center
Mon 12:16:16 PM 42.2258 -87.2869 72° East 392 451 16,800 2,226 Climbing Chicago Center
Mon 12:17:18 PM 42.2608 -87.1403 72° East 408 470 18,700 1,839 Climbing Chicago Center
Mon 12:18:20 PM 42.2811 -86.9794 80° East 438 504 20,600 1,742 Climbing Chicago Center
Mon 12:19:22 PM 42.2886 -86.8119 86° East 448 516 22,300 1,597 Climbing Chicago Center
Mon 12:20:24 PM 42.2953 -86.6497 87° East 456 525 23,900 1,548 Climbing Chicago Center
Mon 12:21:26 PM 42.3022 -86.4472 87° East 470 541 25,500 1,452 Climbing Chicago Center
Mon 12:22:28 PM 42.3094 -86.2678 87° East 480 552 26,900 1,306 Climbing Chicago Center
Mon 12:23:30 PM 42.3158 -86.0850 87° East 489 563 28,200 1,113 Climbing Chicago Center
Mon 12:24:32 PM 42.3122 -85.8983 91° East 500 575 29,200 1,016 Climbing Chicago Center
Mon 12:25:34 PM 42.3100 -85.6678 91° East 514 592 30,300 1,065 Climbing Chicago Center
Mon 12:26:36 PM 42.3078 -85.4714 91° East 524 603 31,400 919 Climbing Chicago Center
Mon 12:27:38 PM 42.3047 -85.2711 91° East 534 615 32,200 726 Climbing Chicago Center
Mon 12:28:40 PM 42.3006 -85.0686 92° East 540 621 32,900 871 Climbing Chicago Center
Mon 12:29:42 PM 42.2967 -84.8631 91° East 548 631 34,000 1,016 Climbing Chicago Center
Mon 12:30:44 PM 42.2919 -84.6181 91° East 547 629 35,000 823 Climbing Chicago Center
Mon 12:31:46 PM 42.3089 -84.4139 84° East 547 629 35,700 726 Climbing Chicago Center
Mon 12:32:48 PM 42.3286 -84.2058 83° East 555 639 36,500 581 Climbing Chicago Center
Mon 12:33:50 PM 42.3461 -84.0017 83° East 553 636 36,900 242 Climbing Chicago Center
Mon 12:34:52 PM 42.3639 -83.7953 83° East 554 638 37,000 48 Climbing Chicago Center
Mon 12:35:55 PM 42.3808 -83.5914 84° East 552 635 37,000  Level Chicago Center
Mon 12:36:59 PM 42.3956 -83.3583 85° East 554 638 37,000  Level Cleveland Center
Mon 12:37:59 PM 42.4106 -83.1508 84° East 554 638 37,000  Level Cleveland Center
Mon 12:38:59 PM 42.4275 -82.9461 84° East 554 638 37,000  Level Cleveland Center
Mon 12:39:59 PM 42.4444 -82.7272 84° East 554 638 37,000 -50 Level Cleveland Center
Mon 12:40:59 PM 42.4586 -82.5194 85° East 549 632 36,900  Descending Cleveland Center
Mon 12:41:59 PM 42.4700 -82.3172 86° East 549 632 37,000 50 Climbing Cleveland Center
Mon 12:42:59 PM 42.4856 -82.1119 84° East 549 632 37,000  Level Cleveland Center
Mon 12:43:59 PM 42.5006 -81.9039 84° East 549 632 37,000  Level Cleveland Center
Mon 12:44:59 PM 42.5153 -81.7014 84° East 554 638 37,000  Level Cleveland Center
Mon 12:45:59 PM 42.5275 -81.4931 85° East 558 642 37,000  Level Cleveland Center
Mon 12:46:59 PM 42.5414 -81.2878 85° East 553 636 37,000  Level Cleveland Center
Mon 12:47:59 PM 42.5528 -81.0878 86° East 548 631 37,000  Level Cleveland Center
Mon 12:48:59 PM 42.5639 -80.9075 85° East 536 617 37,000  Level Cleveland Center
Mon 12:49:59 PM 42.5769 -80.7072 85° East 536 617 37,000  Level Cleveland Center
Mon 12:50:59 PM 42.5853 -80.5042 87° East 536 617 37,000  Level Cleveland Center
Mon 12:51:59 PM 42.5953 -80.3067 86° East 536 617 37,000  Level Cleveland Center
Mon 12:52:58 PM 42.6050 -80.1064 86° East 536 617 37,000  Level Cleveland Center
Mon 12:53:58 PM 42.6186 -79.9033 85° East 531 611 37,000  Level Cleveland Center
Mon 12:54:59 PM 42.6256 -79.7028 87° East 537 618 37,000  Level Cleveland Center
Mon 12:55:59 PM 42.6386 -79.5022 85° East 537 618 37,000  Level Cleveland Center
Mon 12:56:59 PM 42.6450 -79.3072 87° East 537 618 37,000  Level Cleveland Center
Mon 12:57:59 PM 42.6531 -79.1097 87° East 532 612 37,000  Level Cleveland Center
Mon 12:58:59 PM 42.6608 -78.9147 87° East 527 606 37,000  Level Cleveland Center
Mon 12:59:59 PM 42.6661 -78.7167 88° East 522 601 37,000  Level Cleveland Center
Mon 01:00:59 PM 42.6356 -78.5231 102° East 517 595 37,000  Level Cleveland Center
Mon 01:01:59 PM 42.5925 -78.3325 107° East 522 601 37,000 -50 Level Cleveland Center
Mon 01:02:59 PM 42.5531 -78.1394 105° East 527 606 36,900  Descending Cleveland Center
Mon 01:03:58 PM 42.5108 -77.9269 105° East 527 606 37,000  Climbing Cleveland Center
Mon 01:04:58 PM 42.4708 -77.7344 106° East 527 606 36,900  Descending Cleveland Center
Mon 01:05:59 PM 42.4325 -77.5419 105° East 528 608 37,000 50 Climbing Cleveland Center
Mon 01:06:59 PM 42.3939 -77.3469 79° East 528 608 37,000  Level Cleveland Center
Mon 01:07:00 PM 42.4565 -77.3707 79° East  Level FlightAware
Mon 01:07:59 PM 42.3572 -77.1550 104° East 528 608 37,000  Level Cleveland Center
Mon 01:09:31 PM 42.3100 -76.8625 102° East 533 613 37,000  Level Boston Center
Mon 01:10:31 PM 42.3317 -76.6758 81° East 508 585 37,000 -50 Level Boston Center
Mon 01:11:30 PM 42.3594 -76.4894 79° East 508 585 36,900  Descending Boston Center
Mon 01:12:31 PM 42.3889 -76.3031 78° East 508 585 37,000  Climbing Boston Center
Mon 01:13:31 PM 42.4158 -76.1189 79° East 503 579 36,900  Descending Boston Center
Mon 01:14:30 PM 42.4239 -75.9253 87° East 503 579 37,000  Climbing Boston Center
Mon 01:15:31 PM 42.4358 -75.7344 85° East 503 579 36,900 -50 Descending Boston Center
Mon 01:16:30 PM 42.4433 -75.5436 87° East 503 579 36,900  Level Boston Center
Mon 01:17:30 PM 42.4525 -75.3556 86° East 503 579 36,900  Level Boston Center
Mon 01:18:30 PM 42.4594 -75.1672 87° East 503 579 36,900  Level Boston Center
Mon 01:19:30 PM 42.4681 -74.9761 86° East 498 573 36,900  Level Boston Center
Mon 01:20:31 PM 42.4742 -74.7850 87° East 498 573 36,900 50 Level Boston Center
Mon 01:21:31 PM 42.4819 -74.5994 87° East 492 566 37,000  Climbing Boston Center
Mon 01:22:30 PM 42.4914 -74.4308 86° East 497 572 36,900  Descending Boston Center
Mon 01:23:31 PM 42.4967 -74.2422 88° East 497 572 37,000 50 Climbing Boston Center
Mon 01:24:30 PM 42.5014 -74.0508 88° East 497 572 37,000 -151 Level Boston Center
Mon 01:25:30 PM 42.5083 -73.8625 87° East 497 572 36,700 -1,488 Descending Boston Center
Mon 01:26:31 PM 42.5147 -73.6681 87° East 497 572 34,000 -2,727 Descending Boston Center
Mon 01:27:31 PM 42.5186 -73.4711 88° East 508 585 31,200 -2,571 Descending Boston Center
Mon 01:28:30 PM 42.5244 -73.2628 88° East 531 611 28,900 -1,700 Descending Boston Center
Mon 01:29:31 PM 42.5300 -73.0600 88° East 525 604 27,800 -1,934 Descending Boston Center
Mon 01:30:31 PM 42.5331 -72.8769 89° East 503 579 25,000 -2,521 Descending Boston Center
Mon 01:31:30 PM 42.5356 -72.7275 89° East 491 565 22,800 -2,300 Descending Boston Center
Mon 01:32:31 PM 42.5464 -72.5133 86° East 486 559 20,400 -1,884 Descending Boston Center
Mon 01:33:31 PM 42.5650 -72.3556 81° East 456 525 19,000 -1,714 Descending Boston Center
Mon 01:34:30 PM 42.5753 -72.1947 85° East 421 484 17,000 -1,950 Descending Boston Center
Mon 01:35:31 PM 42.5706 -72.0567 93° East 408 470 15,100 -1,884 Descending Boston Center
Mon 01:36:31 PM 42.5469 -71.8961 101° East 403 464 13,200 -1,750 Descending Boston Center
Mon 01:37:31 PM 42.5275 -71.7667 101° East 392 451 11,600 -1,100 Descending Boston Center
Mon 01:38:31 PM 42.5036 -71.6206 102° East 370 426 11,000 -433 Descending Boston Center
Mon 01:39:08 PM 42.5000 -71.5333 93° East 360 414 10,900 -699 Descending KA90
Mon 01:40:14 PM 42.4833 -71.4000 100° East 333 383 9,800 -1,150 Descending KA90
Mon 01:41:08 PM 42.4667 -71.2833 101° East 324 373 8,600 -1,190 Descending KA90
Mon 01:42:20 PM 42.4667 -71.1500 90° East 303 349 7,300 -810 Descending KA90
Mon 01:43:14 PM 42.4500 -71.0500 103° East 271 312 6,900 -789 Descending KA90
Mon 01:44:14 PM 42.4500 -70.9667 90° East 259 298 5,800 -1,100 Descending KA90
Mon 01:45:14 PM 42.4500 -70.8667 90° East 250 288 4,700 -1,013 Descending KA90
Mon 01:45:31 PM 42.4622 -70.8472 50° Northeast 249 287 4,500 -789 Descending Boston Center
Mon 01:46:30 PM 42.4733 -70.7569 80° East 249 287 3,700 -800 Descending Boston Center
Mon 01:47:31 PM 42.4414 -70.7042 129° Southeast 175 201 2,900 -397 Descending Boston Center
Mon 01:48:31 PM 42.4025 -70.7558 224° Southwest 112 129 2,900  Level Boston Center

Login

Don't have an account? Register now (free) for customized features, flight alerts, and more!